Latest Coastal Weather Observations for Adele Island

IDW60701

Issued at 9:13 pm WST Sunday 20 August 2017 (issued every 10 minutes, with the page automatically refreshed every 10 minutes)

About coastal observations | Map of coastal stations | Coastal observations for WA | Marine services | Other Formats
Station Details ID: 200735 Name: ADELE ISLAND Lat: -15.51 Lon: 123.16 Height: 4.6 m
Data from the previous 72 hours. | See also: Recent months at Adele Island
Date/Time
WST
Temp
°C
Wind Pressure Rain since
9am
mm
Weather Cloud Vis
km
Sea
Height
m
Swell
Dir  Spd
kts
Gust
kts
hPa Trend Height
m
Period
s
Dir
20/09:00pm - SW 7 9 1012.4 - - - - - - - - -
20/08:30pm - WSW 8 9 1012.3 - - - - - - - - -
20/08:00pm - SW 7 8 1012.3 - - - - - - - - -
20/07:30pm - SW 8 9 1012.3 - - - - - - - - -
20/07:00pm - SW 7 8 1012.1 - - - - - - - - -
20/06:30pm - SW 7 8 1011.8 - - - - - - - - -
20/06:00pm - SW 6 8 1011.7 - - - - - - - - -
20/05:30pm - WSW 10 11 1011.6 - - - - - - - - -
20/05:00pm - WSW 7 9 1011.7 - - - - - - - - -
20/04:30pm - SW 9 11 1011.6 - - - - - - - - -
20/04:00pm - SW 9 10 1011.6 - - - - - - - - -
20/03:30pm - SW 9 11 1011.4 - - - - - - - - -
20/03:00pm - SW 9 11 1011.6 - - - - - - - - -
20/02:30pm - SW 8 11 1011.8 - - - - - - - - -
20/02:00pm - SW 9 11 1012.1 - - - - - - - - -
20/01:30pm - SSW 10 13 1012.5 - - - - - - - - -
20/01:00pm - SSW 11 14 1013.0 - - - - - - - - -
20/12:30pm - SSW 11 15 1013.5 - - - - - - - - -
20/12:00pm - S 11 15 1014.0 - - - - - - - - -
20/11:30am - S 12 16 1014.4 - - - - - - - - -
20/11:00am - S 12 16 1014.8 - - - - - - - - -
20/10:30am - SSE 12 16 1015.4 - - - - - - - - -
20/10:00am - S 13 17 1015.4 - - - - - - - - -
20/09:30am - S 13 17 1015.5 - - - - - - - - -
20/09:00am - S 15 19 1015.6 - - - - - - - - -
20/08:30am - S 15 19 1015.3 - - - - - - - - -
20/08:00am - S 14 18 1015.1 - - - - - - - - -
20/07:30am - S 13 17 1014.9 - - - - - - - - -
20/07:00am - S 13 16 1014.6 - - - - - - - - -
20/06:30am - SSW 12 15 1014.5 - - - - - - - - -
20/06:00am - SSW 11 14 1014.4 - - - - - - - - -
20/05:30am - SSW 7 9 1014.0 - - - - - - - - -
20/05:00am - SSW 7 8 1013.6 - - - - - - - - -
20/04:30am - SSW 7 9 1013.5 - - - - - - - - -
20/04:00am - SSW 5 9 1013.5 - - - - - - - - -
20/03:30am - SW 7 8 1013.5 - - - - - - - - -
20/03:00am - SW 7 9 1013.7 - - - - - - - - -
20/02:30am - SW 6 9 1013.8 - - - - - - - - -
20/02:00am - SW 7 9 1014.0 - - - - - - - - -
20/01:30am - SW 6 8 1014.0 - - - - - - - - -
20/01:00am - WSW 7 9 1014.0 - - - - - - - - -
20/12:30am - WSW 7 9 1014.2 - - - - - - - - -
20/12:00am - WSW 7 9 1014.2 - - - - - - - - -
 
Date/Time
WST
Temp
°C
Wind Pressure Rain since
9am
mm
Weather Cloud Vis
km
Sea
Height
m
Swell
Dir  Spd
kts
Gust
kts
hPa Trend Height
m
Period
s
Dir
19/11:30pm - WSW 7 8 1014.5 - - - - - - - - -
19/11:00pm - WSW 6 8 1014.4 - - - - - - - - -
19/10:30pm - W 6 7 1014.5 - - - - - - - - -
19/10:00pm - W 6 7 1014.6 - - - - - - - - -
19/09:30pm - WSW 6 8 1014.4 - - - - - - - - -
19/09:00pm - WSW 6 8 1014.2 - - - - - - - - -
19/08:30pm - W 7 9 1014.2 - - - - - - - - -
19/08:00pm - WSW 7 8 1013.8 - - - - - - - - -
19/07:30pm - W 7 8 1013.7 - - - - - - - - -
19/07:00pm - W 6 7 1013.3 - - - - - - - - -
19/06:30pm - W 6 7 1013.0 - - - - - - - - -
19/06:00pm - W 5 6 1013.0 - - - - - - - - -
19/05:30pm - NW 5 6 1012.6 - - - - - - - - -
19/05:00pm - NW 5 6 1012.2 - - - - - - - - -
19/04:30pm - NW 5 7 1012.2 - - - - - - - - -
19/04:00pm - WSW 7 8 1012.0 - - - - - - - - -
19/03:30pm - WSW 8 11 1011.7 - - - - - - - - -
19/03:00pm - SW 8 11 1011.7 - - - - - - - - -
19/02:30pm - SW 9 11 1011.9 - - - - - - - - -
19/02:00pm - SW 9 11 1012.1 - - - - - - - - -
19/01:30pm - SW 9 11 1012.6 - - - - - - - - -
19/01:00pm - SW 9 11 1013.0 - - - - - - - - -
19/12:30pm - SW 9 12 1013.4 - - - - - - - - -
19/12:00pm - SSW 10 12 1013.8 - - - - - - - - -
19/11:30am - SSW 10 11 1014.3 - - - - - - - - -
19/11:00am - S 11 13 1014.6 - - - - - - - - -
19/10:30am - S 12 15 1015.0 - - - - - - - - -
19/10:00am - S 12 15 1015.3 - - - - - - - - -
19/09:30am - SSE 11 14 1015.7 - - - - - - - - -
19/09:00am - SSE 11 14 1015.7 - - - - - - - - -
19/08:30am - S 12 14 1015.4 - - - - - - - - -
19/08:00am - SSW 12 15 1015.1 - - - - - - - - -
19/07:30am - SSW 11 13 1014.9 - - - - - - - - -
19/07:00am - S 7 8 1014.8 - - - - - - - - -
19/06:30am - S 6 7 1014.7 - - - - - - - - -
19/06:00am - S 5 6 1014.4 - - - - - - - - -
19/05:30am - SSW 4 6 1014.1 - - - - - - - - -
19/05:00am - SSW 5 7 1013.8 - - - - - - - - -
19/04:30am - SW 6 7 1013.7 - - - - - - - - -
19/04:00am - WSW 5 6 1013.6 - - - - - - - - -
19/03:30am - WSW 5 6 1013.7 - - - - - - - - -
19/03:00am - WSW 5 6 1013.7 - - - - - - - - -
19/02:30am - W 5 6 1013.9 - - - - - - - - -
19/02:00am - W 6 7 1014.0 - - - - - - - - -
19/01:30am - WNW 6 7 1014.0 - - - - - - - - -
19/01:00am - WSW 5 6 1014.2 - - - - - - - - -
19/12:30am - WSW 6 7 1014.3 - - - - - - - - -
19/12:00am - W 6 8 1014.2 - - - - - - - - -
 
Date/Time
WST
Temp
°C
Wind Pressure Rain since
9am
mm
Weather Cloud Vis
km
Sea
Height
m
Swell
Dir  Spd
kts
Gust
kts
hPa Trend Height
m
Period
s
Dir
18/11:30pm - W 5 6 1014.3 - - - - - - - - -
18/11:00pm - WNW 5 6 1014.1 - - - - - - - - -
18/10:30pm - NW 6 8 1014.2 - - - - - - - - -
18/10:00pm - NW 6 7 1013.9 - - - - - - - - -
18/09:30pm - WNW 5 6 1013.9 - - - - - - - - -
18/09:00pm - WNW 5 6 1013.9 - - - - - - - - -
18/08:30pm - WNW 6 7 1013.8 - - - - - - - - -
18/08:00pm - WNW 6 7 1013.4 - - - - - - - - -
18/07:30pm - W 5 6 1013.1 - - - - - - - - -
18/07:00pm - WSW 6 7 1012.6 - - - - - - - - -
18/06:30pm - WSW 6 7 1012.2 - - - - - - - - -
18/06:00pm - WSW 8 9 1011.9 - - - - - - - - -
18/05:30pm - WNW 6 8 1011.8 - - - - - - - - -
18/05:00pm - NW 6 7 1011.6 - - - - - - - - -
18/04:30pm - NW 6 7 1011.4 - - - - - - - - -
18/04:00pm - NW 6 7 1011.1 - - - - - - - - -
18/03:30pm - WSW 6 8 1010.9 - - - - - - - - -
18/03:00pm - WSW 6 8 1010.7 - - - - - - - - -
18/02:30pm - WSW 6 8 1010.9 - - - - - - - - -
18/02:00pm - WSW 6 8 1011.2 - - - - - - - - -
18/01:30pm - SW 7 8 1011.5 - - - - - - - - -
18/01:00pm - SW 8 9 1011.9 - - - - - - - - -
18/12:30pm - SW 8 9 1012.3 - - - - - - - - -
18/12:00pm - SW 8 11 1012.5 - - - - - - - - -
18/11:30am - SW 8 11 1012.9 - - - - - - - - -
18/11:00am - WSW 9 11 1013.2 - - - - - - - - -
18/10:30am - SW 8 11 1013.5 - - - - - - - - -
18/10:00am - SW 8 10 1013.9 - - - - - - - - -
18/09:30am - SW 5 6 1014.1 - - - - - - - - -
18/09:00am - SW 4 5 1013.9 - - - - - - - - -
18/08:30am - SW 2 5 1013.8 - - - - - - - - -
18/08:00am - SW 1 4 1013.5 - - - - - - - - -
18/07:30am - S 1 3 1013.4 - - - - - - - - -
18/07:00am - S 5 6 1013.3 - - - - - - - - -
18/06:30am - S 7 8 1013.2 - - - - - - - - -
18/06:00am - S 7 8 1012.9 - - - - - - - - -
18/05:30am - SSW 5 6 1012.3 - - - - - - - - -
18/05:00am - S 6 7 1012.1 - - - - - - - - -
18/04:30am - SSW 5 6 1011.8 - - - - - - - - -
18/04:00am - SSW 6 6 1011.4 - - - - - - - - -
18/03:30am - SW 6 7 1011.0 - - - - - - - - -
18/03:00am - SW 6 6 1010.9 - - - - - - - - -
18/02:30am - SSW 6 6 1010.9 - - - - - - - - -
18/02:00am - SW 5 6 1010.8 - - - - - - - - -
18/01:30am - SSW 6 7 1010.9 - - - - - - - - -
18/01:00am - SSW 7 8 1011.1 - - - - - - - - -
18/12:30am - SSW 6 7 1011.3 - - - - - - - - -
18/12:00am - SSW 7 8 1011.5 - - - - - - - - -
 
Date/Time
WST
Temp
°C
Wind Pressure Rain since
9am
mm
Weather Cloud Vis
km
Sea
Height
m
Swell
Dir  Spd
kts
Gust
kts
hPa Trend Height
m
Period
s
Dir
17/11:30pm - SSW 7 8 1011.6 - - - - - - - - -
17/11:00pm - SW 7 8 1011.8 - - - - - - - - -
17/10:30pm - SW 7 9 1012.0 - - - - - - - - -
17/10:00pm - SW 7 8 1012.0 - - - - - - - - -
17/09:30pm - WSW 7 9 1011.9 - - - - - - - - -

Other Formats:

Comma delimited format used in spreadsheet applications
http://www.bom.gov.au/fwo/IDW60701/IDW60701.94210.axf

JavaScript Object Notation format (JSON) in row-major order
http://www.bom.gov.au/fwo/IDW60701/IDW60701.94210.json